sensor_id;sensor_type;location;lat;lon;timestamp;P1;durP1;ratioP1;P2;durP2;ratioP2
79009;SDS011;73031;44.726;37.760;2023-12-07T00:00:15;6.40;;;2.90;;
79009;SDS011;73031;44.726;37.760;2023-12-07T00:01:17;5.28;;;2.53;;
79009;SDS011;73031;44.726;37.760;2023-12-07T00:02:18;6.18;;;3.00;;
79009;SDS011;73031;44.726;37.760;2023-12-07T00:03:19;5.60;;;2.75;;
79009;SDS011;73031;44.726;37.760;2023-12-07T00:04:20;6.38;;;2.88;;
79009;SDS011;73031;44.726;37.760;2023-12-07T00:05:21;6.15;;;2.95;;
79009;SDS011;73031;44.726;37.760;2023-12-07T00:06:22;4.88;;;2.28;;
79009;SDS011;73031;44.726;37.760;2023-12-07T00:07:23;5.88;;;2.65;;
79009;SDS011;73031;44.726;37.760;2023-12-07T00:08:24;5.68;;;2.72;;
79009;SDS011;73031;44.726;37.760;2023-12-07T00:09:25;5.55;;;2.60;;
79009;SDS011;73031;44.726;37.760;2023-12-07T00:10:26;6.15;;;2.75;;
79009;SDS011;73031;44.726;37.760;2023-12-07T00:11:27;5.43;;;2.53;;
79009;SDS011;73031;44.726;37.760;2023-12-07T00:12:29;5.90;;;2.50;;
79009;SDS011;73031;44.726;37.760;2023-12-07T00:13:30;5.97;;;2.63;;
79009;SDS011;73031;44.726;37.760;2023-12-07T00:14:31;5.07;;;2.25;;
79009;SDS011;73031;44.726;37.760;2023-12-07T00:15:32;6.00;;;2.85;;
79009;SDS011;73031;44.726;37.760;2023-12-07T00:16:34;6.13;;;2.67;;
79009;SDS011;73031;44.726;37.760;2023-12-07T00:17:35;5.45;;;2.60;;
79009;SDS011;73031;44.726;37.760;2023-12-07T00:18:36;6.10;;;2.50;;
79009;SDS011;73031;44.726;37.760;2023-12-07T00:19:37;6.55;;;2.90;;
79009;SDS011;73031;44.726;37.760;2023-12-07T00:20:39;5.22;;;2.25;;
79009;SDS011;73031;44.726;37.760;2023-12-07T00:21:40;6.05;;;2.53;;
79009;SDS011;73031;44.726;37.760;2023-12-07T00:22:41;6.85;;;2.72;;
79009;SDS011;73031;44.726;37.760;2023-12-07T00:23:42;5.72;;;2.60;;
79009;SDS011;73031;44.726;37.760;2023-12-07T00:24:43;6.88;;;2.63;;
79009;SDS011;73031;44.726;37.760;2023-12-07T00:25:44;5.43;;;2.35;;
79009;SDS011;73031;44.726;37.760;2023-12-07T00:26:46;5.82;;;2.65;;
79009;SDS011;73031;44.726;37.760;2023-12-07T00:27:47;5.00;;;2.40;;
79009;SDS011;73031;44.726;37.760;2023-12-07T00:28:50;6.13;;;2.50;;
79009;SDS011;73031;44.726;37.760;2023-12-07T00:29:51;5.95;;;2.65;;
79009;SDS011;73031;44.726;37.760;2023-12-07T00:30:52;5.38;;;2.45;;
79009;SDS011;73031;44.726;37.760;2023-12-07T00:31:53;5.88;;;2.45;;
79009;SDS011;73031;44.726;37.760;2023-12-07T00:32:54;5.22;;;2.80;;
79009;SDS011;73031;44.726;37.760;2023-12-07T00:33:56;5.05;;;2.35;;
79009;SDS011;73031;44.726;37.760;2023-12-07T00:34:57;5.82;;;2.50;;
79009;SDS011;73031;44.726;37.760;2023-12-07T00:35:58;5.63;;;2.50;;
79009;SDS011;73031;44.726;37.760;2023-12-07T00:36:59;5.53;;;2.50;;
79009;SDS011;73031;44.726;37.760;2023-12-07T00:38:01;6.75;;;2.65;;
79009;SDS011;73031;44.726;37.760;2023-12-07T00:39:02;6.60;;;2.63;;
79009;SDS011;73031;44.726;37.760;2023-12-07T00:40:04;4.78;;;2.20;;
79009;SDS011;73031;44.726;37.760;2023-12-07T00:41:06;5.63;;;2.50;;
79009;SDS011;73031;44.726;37.760;2023-12-07T00:42:08;5.30;;;2.25;;
79009;SDS011;73031;44.726;37.760;2023-12-07T00:43:09;7.47;;;2.80;;
79009;SDS011;73031;44.726;37.760;2023-12-07T00:44:10;5.32;;;2.22;;
79009;SDS011;73031;44.726;37.760;2023-12-07T00:45:11;5.18;;;2.47;;
79009;SDS011;73031;44.726;37.760;2023-12-07T00:46:13;5.32;;;2.47;;
79009;SDS011;73031;44.726;37.760;2023-12-07T00:47:14;5.13;;;2.25;;
79009;SDS011;73031;44.726;37.760;2023-12-07T00:48:15;4.80;;;2.50;;
79009;SDS011;73031;44.726;37.760;2023-12-07T00:49:16;5.22;;;2.10;;
79009;SDS011;73031;44.726;37.760;2023-12-07T00:50:17;5.72;;;2.70;;
79009;SDS011;73031;44.726;37.760;2023-12-07T00:51:18;5.53;;;2.20;;
79009;SDS011;73031;44.726;37.760;2023-12-07T00:52:20;5.38;;;2.70;;
79009;SDS011;73031;44.726;37.760;2023-12-07T00:53:21;6.55;;;2.67;;
79009;SDS011;73031;44.726;37.760;2023-12-07T00:54:22;6.75;;;2.50;;
79009;SDS011;73031;44.726;37.760;2023-12-07T00:55:23;5.82;;;2.30;;
79009;SDS011;73031;44.726;37.760;2023-12-07T00:56:24;5.40;;;2.53;;
79009;SDS011;73031;44.726;37.760;2023-12-07T00:57:25;4.82;;;2.08;;
79009;SDS011;73031;44.726;37.760;2023-12-07T00:58:27;5.95;;;2.38;;
79009;SDS011;73031;44.726;37.760;2023-12-07T00:59:28;6.30;;;2.40;;
79009;SDS011;73031;44.726;37.760;2023-12-07T01:00:34;5.40;;;2.40;;
79009;SDS011;73031;44.726;37.760;2023-12-07T01:01:35;6.25;;;2.53;;
79009;SDS011;73031;44.726;37.760;2023-12-07T01:02:39;6.00;;;2.45;;
79009;SDS011;73031;44.726;37.760;2023-12-07T01:03:40;5.10;;;2.40;;
79009;SDS011;73031;44.726;37.760;2023-12-07T01:04:41;5.75;;;2.45;;
79009;SDS011;73031;44.726;37.760;2023-12-07T01:05:44;7.35;;;2.90;;
79009;SDS011;73031;44.726;37.760;2023-12-07T01:06:46;5.50;;;2.38;;
79009;SDS011;73031;44.726;37.760;2023-12-07T01:07:47;5.47;;;2.58;;
79009;SDS011;73031;44.726;37.760;2023-12-07T01:08:48;5.47;;;2.58;;
79009;SDS011;73031;44.726;37.760;2023-12-07T01:09:49;5.85;;;2.65;;
79009;SDS011;73031;44.726;37.760;2023-12-07T01:10:50;5.05;;;2.30;;
79009;SDS011;73031;44.726;37.760;2023-12-07T01:11:51;5.53;;;2.38;;
79009;SDS011;73031;44.726;37.760;2023-12-07T01:12:53;5.15;;;2.40;;
79009;SDS011;73031;44.726;37.760;2023-12-07T01:13:54;5.20;;;2.20;;
79009;SDS011;73031;44.726;37.760;2023-12-07T01:14:55;5.35;;;2.50;;
79009;SDS011;73031;44.726;37.760;2023-12-07T01:15:56;4.88;;;2.15;;
79009;SDS011;73031;44.726;37.760;2023-12-07T01:16:58;5.10;;;2.47;;
79009;SDS011;73031;44.726;37.760;2023-12-07T01:17:59;5.55;;;2.33;;
79009;SDS011;73031;44.726;37.760;2023-12-07T01:19:00;5.57;;;2.38;;
79009;SDS011;73031;44.726;37.760;2023-12-07T01:20:01;5.45;;;2.40;;
79009;SDS011;73031;44.726;37.760;2023-12-07T01:21:04;6.82;;;2.53;;
79009;SDS011;73031;44.726;37.760;2023-12-07T01:22:06;5.20;;;2.28;;
79009;SDS011;73031;44.726;37.760;2023-12-07T01:23:07;5.25;;;2.47;;
79009;SDS011;73031;44.726;37.760;2023-12-07T01:24:11;5.05;;;2.30;;
79009;SDS011;73031;44.726;37.760;2023-12-07T01:25:12;7.00;;;2.28;;
79009;SDS011;73031;44.726;37.760;2023-12-07T01:26:17;6.15;;;2.33;;
79009;SDS011;73031;44.726;37.760;2023-12-07T01:27:18;5.43;;;2.45;;
79009;SDS011;73031;44.726;37.760;2023-12-07T01:28:19;4.90;;;2.25;;
79009;SDS011;73031;44.726;37.760;2023-12-07T01:29:20;5.80;;;2.40;;
79009;SDS011;73031;44.726;37.760;2023-12-07T01:30:21;5.35;;;2.53;;
79009;SDS011;73031;44.726;37.760;2023-12-07T01:31:23;4.72;;;2.10;;
79009;SDS011;73031;44.726;37.760;2023-12-07T01:32:24;5.18;;;2.22;;
79009;SDS011;73031;44.726;37.760;2023-12-07T01:33:25;5.38;;;2.50;;
79009;SDS011;73031;44.726;37.760;2023-12-07T01:34:26;6.00;;;2.33;;
79009;SDS011;73031;44.726;37.760;2023-12-07T01:35:27;6.40;;;2.60;;
79009;SDS011;73031;44.726;37.760;2023-12-07T01:36:29;5.40;;;2.33;;
79009;SDS011;73031;44.726;37.760;2023-12-07T01:37:30;5.35;;;2.17;;
79009;SDS011;73031;44.726;37.760;2023-12-07T01:38:31;5.55;;;2.30;;
79009;SDS011;73031;44.726;37.760;2023-12-07T01:39:32;4.80;;;2.03;;
79009;SDS011;73031;44.726;37.760;2023-12-07T01:40:34;5.88;;;2.30;;
79009;SDS011;73031;44.726;37.760;2023-12-07T01:41:35;5.57;;;2.40;;
79009;SDS011;73031;44.726;37.760;2023-12-07T01:42:36;5.68;;;2.33;;
79009;SDS011;73031;44.726;37.760;2023-12-07T01:43:44;5.60;;;2.25;;
79009;SDS011;73031;44.726;37.760;2023-12-07T01:44:46;5.47;;;2.13;;
79009;SDS011;73031;44.726;37.760;2023-12-07T01:45:47;5.00;;;2.13;;
79009;SDS011;73031;44.726;37.760;2023-12-07T01:46:49;5.68;;;2.55;;
79009;SDS011;73031;44.726;37.760;2023-12-07T01:47:51;5.15;;;2.20;;
79009;SDS011;73031;44.726;37.760;2023-12-07T01:48:53;5.15;;;2.13;;
79009;SDS011;73031;44.726;37.760;2023-12-07T01:49:55;4.85;;;2.25;;
79009;SDS011;73031;44.726;37.760;2023-12-07T01:50:56;5.53;;;2.33;;
79009;SDS011;73031;44.726;37.760;2023-12-07T01:51:58;8.75;;;2.25;;
79009;SDS011;73031;44.726;37.760;2023-12-07T01:53:01;5.20;;;2.13;;
79009;SDS011;73031;44.726;37.760;2023-12-07T01:54:02;6.25;;;2.60;;
79009;SDS011;73031;44.726;37.760;2023-12-07T01:55:04;5.10;;;2.40;;
79009;SDS011;73031;44.726;37.760;2023-12-07T01:56:07;4.85;;;2.22;;
79009;SDS011;73031;44.726;37.760;2023-12-07T01:57:09;5.13;;;2.30;;
79009;SDS011;73031;44.726;37.760;2023-12-07T01:58:10;4.72;;;2.05;;
79009;SDS011;73031;44.726;37.760;2023-12-07T01:59:12;4.97;;;2.20;;
79009;SDS011;73031;44.726;37.760;2023-12-07T02:00:13;5.07;;;2.05;;
79009;SDS011;73031;44.726;37.760;2023-12-07T02:01:15;5.93;;;1.95;;
79009;SDS011;73031;44.726;37.760;2023-12-07T02:02:16;5.13;;;2.13;;
79009;SDS011;73031;44.726;37.760;2023-12-07T02:03:17;4.63;;;2.03;;
79009;SDS011;73031;44.726;37.760;2023-12-07T02:04:18;4.95;;;2.22;;
79009;SDS011;73031;44.726;37.760;2023-12-07T02:05:19;4.63;;;2.20;;
79009;SDS011;73031;44.726;37.760;2023-12-07T02:06:21;4.57;;;2.30;;
79009;SDS011;73031;44.726;37.760;2023-12-07T02:07:22;5.45;;;2.28;;
79009;SDS011;73031;44.726;37.760;2023-12-07T02:08:24;7.70;;;2.40;;
79009;SDS011;73031;44.726;37.760;2023-12-07T02:09:28;5.93;;;2.22;;
79009;SDS011;73031;44.726;37.760;2023-12-07T02:10:29;4.50;;;2.03;;
79009;SDS011;73031;44.726;37.760;2023-12-07T02:11:30;4.82;;;2.30;;
79009;SDS011;73031;44.726;37.760;2023-12-07T02:12:31;4.85;;;2.20;;
79009;SDS011;73031;44.726;37.760;2023-12-07T02:13:33;4.15;;;1.90;;
79009;SDS011;73031;44.726;37.760;2023-12-07T02:14:35;4.65;;;1.92;;
79009;SDS011;73031;44.726;37.760;2023-12-07T02:15:36;5.43;;;2.17;;
79009;SDS011;73031;44.726;37.760;2023-12-07T02:18:25;5.07;;;2.30;;
79009;SDS011;73031;44.726;37.760;2023-12-07T02:21:16;5.40;;;2.00;;
79009;SDS011;73031;44.726;37.760;2023-12-07T02:22:27;5.22;;;2.20;;
79009;SDS011;73031;44.726;37.760;2023-12-07T02:23:32;4.10;;;2.00;;
79009;SDS011;73031;44.726;37.760;2023-12-07T02:24:34;5.00;;;2.05;;
79009;SDS011;73031;44.726;37.760;2023-12-07T02:27:36;4.43;;;1.90;;
79009;SDS011;73031;44.726;37.760;2023-12-07T02:28:41;4.88;;;1.92;;
79009;SDS011;73031;44.726;37.760;2023-12-07T02:29:42;5.50;;;1.95;;
79009;SDS011;73031;44.726;37.760;2023-12-07T02:30:43;5.32;;;2.00;;
79009;SDS011;73031;44.726;37.760;2023-12-07T02:31:44;5.03;;;1.92;;
79009;SDS011;73031;44.726;37.760;2023-12-07T02:32:46;4.72;;;1.90;;
79009;SDS011;73031;44.726;37.760;2023-12-07T02:33:47;4.63;;;1.88;;
79009;SDS011;73031;44.726;37.760;2023-12-07T02:34:49;4.72;;;2.17;;
79009;SDS011;73031;44.726;37.760;2023-12-07T02:35:50;5.28;;;2.20;;
79009;SDS011;73031;44.726;37.760;2023-12-07T02:36:52;5.47;;;2.20;;
79009;SDS011;73031;44.726;37.760;2023-12-07T02:37:55;4.82;;;2.10;;
79009;SDS011;73031;44.726;37.760;2023-12-07T02:38:58;5.35;;;2.05;;
79009;SDS011;73031;44.726;37.760;2023-12-07T02:40:02;5.07;;;2.10;;
79009;SDS011;73031;44.726;37.760;2023-12-07T02:41:04;4.97;;;2.00;;
79009;SDS011;73031;44.726;37.760;2023-12-07T02:42:07;4.38;;;2.20;;
79009;SDS011;73031;44.726;37.760;2023-12-07T02:43:08;5.75;;;1.92;;
79009;SDS011;73031;44.726;37.760;2023-12-07T02:44:10;4.25;;;1.80;;
79009;SDS011;73031;44.726;37.760;2023-12-07T02:45:11;5.05;;;2.05;;
79009;SDS011;73031;44.726;37.760;2023-12-07T02:46:13;4.68;;;1.98;;
79009;SDS011;73031;44.726;37.760;2023-12-07T02:47:14;4.28;;;1.95;;
79009;SDS011;73031;44.726;37.760;2023-12-07T02:48:15;5.28;;;2.35;;
79009;SDS011;73031;44.726;37.760;2023-12-07T02:49:17;5.35;;;2.17;;
79009;SDS011;73031;44.726;37.760;2023-12-07T02:50:18;5.25;;;1.90;;
79009;SDS011;73031;44.726;37.760;2023-12-07T02:51:20;4.18;;;1.98;;
79009;SDS011;73031;44.726;37.760;2023-12-07T02:52:21;4.40;;;1.88;;
79009;SDS011;73031;44.726;37.760;2023-12-07T02:53:22;5.25;;;1.88;;
79009;SDS011;73031;44.726;37.760;2023-12-07T02:54:23;4.60;;;2.03;;
79009;SDS011;73031;44.726;37.760;2023-12-07T02:55:24;5.28;;;1.80;;
79009;SDS011;73031;44.726;37.760;2023-12-07T02:56:25;4.32;;;1.98;;
79009;SDS011;73031;44.726;37.760;2023-12-07T02:57:26;4.10;;;1.80;;
79009;SDS011;73031;44.726;37.760;2023-12-07T02:58:27;5.97;;;2.20;;
79009;SDS011;73031;44.726;37.760;2023-12-07T02:59:28;4.85;;;2.00;;
79009;SDS011;73031;44.726;37.760;2023-12-07T03:00:29;5.57;;;2.08;;
79009;SDS011;73031;44.726;37.760;2023-12-07T03:01:30;4.82;;;2.00;;
79009;SDS011;73031;44.726;37.760;2023-12-07T03:02:38;4.47;;;2.20;;
79009;SDS011;73031;44.726;37.760;2023-12-07T03:03:40;7.25;;;2.30;;
79009;SDS011;73031;44.726;37.760;2023-12-07T03:04:42;4.32;;;2.00;;
79009;SDS011;73031;44.726;37.760;2023-12-07T03:05:43;4.60;;;2.33;;
79009;SDS011;73031;44.726;37.760;2023-12-07T03:06:44;4.95;;;2.20;;
79009;SDS011;73031;44.726;37.760;2023-12-07T03:07:45;4.55;;;2.28;;
79009;SDS011;73031;44.726;37.760;2023-12-07T03:08:47;5.05;;;2.05;;
79009;SDS011;73031;44.726;37.760;2023-12-07T03:09:48;4.95;;;2.17;;
79009;SDS011;73031;44.726;37.760;2023-12-07T03:10:49;4.60;;;2.10;;
79009;SDS011;73031;44.726;37.760;2023-12-07T03:11:50;4.38;;;2.10;;
79009;SDS011;73031;44.726;37.760;2023-12-07T03:12:51;5.05;;;1.92;;
79009;SDS011;73031;44.726;37.760;2023-12-07T03:13:52;4.78;;;2.10;;
79009;SDS011;73031;44.726;37.760;2023-12-07T03:14:53;5.50;;;2.20;;
79009;SDS011;73031;44.726;37.760;2023-12-07T03:15:54;5.32;;;2.20;;
79009;SDS011;73031;44.726;37.760;2023-12-07T03:16:55;4.00;;;1.88;;
79009;SDS011;73031;44.726;37.760;2023-12-07T03:17:56;5.30;;;2.25;;
79009;SDS011;73031;44.726;37.760;2023-12-07T03:18:58;4.93;;;1.90;;
79009;SDS011;73031;44.726;37.760;2023-12-07T03:20:02;7.38;;;2.20;;
79009;SDS011;73031;44.726;37.760;2023-12-07T03:21:05;4.55;;;2.10;;
79009;SDS011;73031;44.726;37.760;2023-12-07T03:22:07;6.10;;;2.33;;
79009;SDS011;73031;44.726;37.760;2023-12-07T03:23:09;5.70;;;1.90;;
79009;SDS011;73031;44.726;37.760;2023-12-07T03:24:10;5.07;;;2.17;;
79009;SDS011;73031;44.726;37.760;2023-12-07T03:25:11;4.82;;;2.30;;
79009;SDS011;73031;44.726;37.760;2023-12-07T03:26:12;5.18;;;2.13;;
79009;SDS011;73031;44.726;37.760;2023-12-07T03:27:14;4.95;;;2.10;;
79009;SDS011;73031;44.726;37.760;2023-12-07T03:28:15;5.60;;;2.00;;
79009;SDS011;73031;44.726;37.760;2023-12-07T03:29:16;5.45;;;2.30;;
79009;SDS011;73031;44.726;37.760;2023-12-07T03:30:17;6.20;;;2.50;;
79009;SDS011;73031;44.726;37.760;2023-12-07T03:31:18;4.65;;;2.15;;
79009;SDS011;73031;44.726;37.760;2023-12-07T03:32:19;5.30;;;2.20;;
79009;SDS011;73031;44.726;37.760;2023-12-07T03:33:20;6.93;;;2.40;;
79009;SDS011;73031;44.726;37.760;2023-12-07T03:34:21;5.90;;;2.38;;
79009;SDS011;73031;44.726;37.760;2023-12-07T03:35:22;5.65;;;2.40;;
79009;SDS011;73031;44.726;37.760;2023-12-07T03:36:23;5.20;;;2.20;;
79009;SDS011;73031;44.726;37.760;2023-12-07T03:37:24;7.13;;;2.20;;
79009;SDS011;73031;44.726;37.760;2023-12-07T03:38:25;4.57;;;2.00;;
79009;SDS011;73031;44.726;37.760;2023-12-07T03:39:26;5.45;;;2.45;;
79009;SDS011;73031;44.726;37.760;2023-12-07T03:40:30;6.07;;;2.10;;
79009;SDS011;73031;44.726;37.760;2023-12-07T03:41:31;5.35;;;2.22;;
79009;SDS011;73031;44.726;37.760;2023-12-07T03:42:32;5.60;;;2.50;;
79009;SDS011;73031;44.726;37.760;2023-12-07T03:43:33;5.53;;;2.40;;
79009;SDS011;73031;44.726;37.760;2023-12-07T03:44:34;5.38;;;2.25;;
79009;SDS011;73031;44.726;37.760;2023-12-07T03:45:35;4.85;;;2.15;;
79009;SDS011;73031;44.726;37.760;2023-12-07T03:46:36;5.75;;;2.15;;
79009;SDS011;73031;44.726;37.760;2023-12-07T03:47:37;4.53;;;2.10;;
79009;SDS011;73031;44.726;37.760;2023-12-07T03:48:38;5.15;;;2.40;;
79009;SDS011;73031;44.726;37.760;2023-12-07T03:49:39;6.88;;;2.45;;
79009;SDS011;73031;44.726;37.760;2023-12-07T03:50:41;4.75;;;2.25;;
79009;SDS011;73031;44.726;37.760;2023-12-07T03:51:42;5.35;;;2.35;;
79009;SDS011;73031;44.726;37.760;2023-12-07T03:52:43;5.57;;;2.33;;
79009;SDS011;73031;44.726;37.760;2023-12-07T03:53:45;5.82;;;2.40;;
79009;SDS011;73031;44.726;37.760;2023-12-07T03:54:46;5.25;;;2.40;;
79009;SDS011;73031;44.726;37.760;2023-12-07T03:55:47;5.85;;;2.75;;
79009;SDS011;73031;44.726;37.760;2023-12-07T03:56:48;5.93;;;2.58;;
79009;SDS011;73031;44.726;37.760;2023-12-07T03:57:50;5.55;;;2.38;;
79009;SDS011;73031;44.726;37.760;2023-12-07T03:58:51;6.63;;;2.53;;
79009;SDS011;73031;44.726;37.760;2023-12-07T03:59:53;5.88;;;2.30;;
79009;SDS011;73031;44.726;37.760;2023-12-07T04:00:54;5.47;;;2.20;;
79009;SDS011;73031;44.726;37.760;2023-12-07T04:01:55;6.13;;;2.63;;
79009;SDS011;73031;44.726;37.760;2023-12-07T04:02:56;5.00;;;2.40;;
79009;SDS011;73031;44.726;37.760;2023-12-07T04:03:57;5.25;;;2.53;;
79009;SDS011;73031;44.726;37.760;2023-12-07T04:04:59;5.07;;;2.20;;
79009;SDS011;73031;44.726;37.760;2023-12-07T04:06:02;5.53;;;2.55;;
79009;SDS011;73031;44.726;37.760;2023-12-07T04:07:03;5.47;;;2.50;;
79009;SDS011;73031;44.726;37.760;2023-12-07T04:08:05;5.65;;;2.45;;
79009;SDS011;73031;44.726;37.760;2023-12-07T04:09:06;7.65;;;2.33;;
79009;SDS011;73031;44.726;37.760;2023-12-07T04:10:08;5.97;;;2.40;;
79009;SDS011;73031;44.726;37.760;2023-12-07T04:11:09;4.82;;;2.15;;
79009;SDS011;73031;44.726;37.760;2023-12-07T04:12:11;4.95;;;2.20;;
79009;SDS011;73031;44.726;37.760;2023-12-07T04:13:12;5.97;;;2.60;;
79009;SDS011;73031;44.726;37.760;2023-12-07T04:14:13;6.07;;;2.55;;
79009;SDS011;73031;44.726;37.760;2023-12-07T04:15:15;6.20;;;2.45;;
79009;SDS011;73031;44.726;37.760;2023-12-07T04:16:16;6.15;;;2.67;;
79009;SDS011;73031;44.726;37.760;2023-12-07T04:17:17;5.40;;;2.38;;
79009;SDS011;73031;44.726;37.760;2023-12-07T04:18:19;6.75;;;2.67;;
79009;SDS011;73031;44.726;37.760;2023-12-07T04:19:20;5.95;;;2.60;;
79009;SDS011;73031;44.726;37.760;2023-12-07T04:20:21;6.50;;;3.13;;
79009;SDS011;73031;44.726;37.760;2023-12-07T04:21:22;5.55;;;2.65;;
79009;SDS011;73031;44.726;37.760;2023-12-07T04:22:23;5.80;;;2.72;;
79009;SDS011;73031;44.726;37.760;2023-12-07T04:23:24;6.35;;;2.72;;
79009;SDS011;73031;44.726;37.760;2023-12-07T04:24:26;6.65;;;2.70;;
79009;SDS011;73031;44.726;37.760;2023-12-07T04:25:27;5.88;;;2.55;;
79009;SDS011;73031;44.726;37.760;2023-12-07T04:26:28;6.32;;;3.08;;
79009;SDS011;73031;44.726;37.760;2023-12-07T04:27:29;7.03;;;2.72;;
79009;SDS011;73031;44.726;37.760;2023-12-07T04:28:30;5.43;;;2.55;;
79009;SDS011;73031;44.726;37.760;2023-12-07T04:29:31;6.97;;;2.60;;
79009;SDS011;73031;44.726;37.760;2023-12-07T04:30:32;5.93;;;2.60;;
79009;SDS011;73031;44.726;37.760;2023-12-07T04:31:33;8.57;;;2.75;;
79009;SDS011;73031;44.726;37.760;2023-12-07T04:32:36;5.55;;;2.58;;
79009;SDS011;73031;44.726;37.760;2023-12-07T04:33:37;6.10;;;3.05;;
79009;SDS011;73031;44.726;37.760;2023-12-07T04:34:38;5.97;;;2.70;;
79009;SDS011;73031;44.726;37.760;2023-12-07T04:35:39;7.18;;;2.72;;
79009;SDS011;73031;44.726;37.760;2023-12-07T04:36:40;5.78;;;2.50;;
79009;SDS011;73031;44.726;37.760;2023-12-07T04:37:41;6.00;;;2.90;;
79009;SDS011;73031;44.726;37.760;2023-12-07T04:38:43;5.93;;;2.83;;
79009;SDS011;73031;44.726;37.760;2023-12-07T04:39:44;5.90;;;2.72;;
79009;SDS011;73031;44.726;37.760;2023-12-07T04:40:45;6.22;;;2.38;;
79009;SDS011;73031;44.726;37.760;2023-12-07T04:41:46;5.30;;;2.47;;
79009;SDS011;73031;44.726;37.760;2023-12-07T04:42:47;6.78;;;2.65;;
79009;SDS011;73031;44.726;37.760;2023-12-07T04:43:48;6.78;;;2.83;;
79009;SDS011;73031;44.726;37.760;2023-12-07T04:44:49;6.82;;;3.10;;
79009;SDS011;73031;44.726;37.760;2023-12-07T04:45:50;5.30;;;2.60;;
79009;SDS011;73031;44.726;37.760;2023-12-07T04:46:51;5.93;;;2.60;;
79009;SDS011;73031;44.726;37.760;2023-12-07T04:47:52;7.43;;;2.78;;
79009;SDS011;73031;44.726;37.760;2023-12-07T04:48:54;5.70;;;2.60;;
79009;SDS011;73031;44.726;37.760;2023-12-07T04:49:55;5.80;;;2.78;;
79009;SDS011;73031;44.726;37.760;2023-12-07T04:50:56;7.35;;;2.90;;
79009;SDS011;73031;44.726;37.760;2023-12-07T04:51:57;6.35;;;2.53;;
79009;SDS011;73031;44.726;37.760;2023-12-07T04:52:58;6.25;;;2.83;;
79009;SDS011;73031;44.726;37.760;2023-12-07T04:53:59;5.82;;;2.47;;
79009;SDS011;73031;44.726;37.760;2023-12-07T04:55:00;6.00;;;2.90;;
79009;SDS011;73031;44.726;37.760;2023-12-07T04:56:02;6.07;;;2.50;;
79009;SDS011;73031;44.726;37.760;2023-12-07T04:57:03;5.57;;;2.53;;
79009;SDS011;73031;44.726;37.760;2023-12-07T04:58:04;6.57;;;2.85;;
79009;SDS011;73031;44.726;37.760;2023-12-07T04:59:05;5.03;;;2.30;;
79009;SDS011;73031;44.726;37.760;2023-12-07T05:00:07;6.55;;;2.70;;
79009;SDS011;73031;44.726;37.760;2023-12-07T05:01:09;6.57;;;2.75;;
79009;SDS011;73031;44.726;37.760;2023-12-07T05:02:11;6.13;;;2.53;;
79009;SDS011;73031;44.726;37.760;2023-12-07T05:03:12;6.75;;;2.72;;
79009;SDS011;73031;44.726;37.760;2023-12-07T05:04:13;5.70;;;2.40;;
79009;SDS011;73031;44.726;37.760;2023-12-07T05:05:14;5.68;;;2.60;;
79009;SDS011;73031;44.726;37.760;2023-12-07T05:06:16;5.60;;;2.22;;
79009;SDS011;73031;44.726;37.760;2023-12-07T05:07:17;5.20;;;2.40;;
79009;SDS011;73031;44.726;37.760;2023-12-07T05:08:18;5.20;;;2.45;;
79009;SDS011;73031;44.726;37.760;2023-12-07T05:09:20;5.53;;;2.53;;
79009;SDS011;73031;44.726;37.760;2023-12-07T05:10:22;5.05;;;2.40;;
79009;SDS011;73031;44.726;37.760;2023-12-07T05:11:23;7.15;;;3.03;;
79009;SDS011;73031;44.726;37.760;2023-12-07T05:12:24;5.95;;;2.70;;
79009;SDS011;73031;44.726;37.760;2023-12-07T05:13:26;6.18;;;2.70;;
79009;SDS011;73031;44.726;37.760;2023-12-07T05:14:28;6.72;;;2.70;;
79009;SDS011;73031;44.726;37.760;2023-12-07T05:15:29;6.88;;;2.65;;
79009;SDS011;73031;44.726;37.760;2023-12-07T05:16:30;6.18;;;2.80;;
79009;SDS011;73031;44.726;37.760;2023-12-07T05:17:31;6.20;;;2.60;;
79009;SDS011;73031;44.726;37.760;2023-12-07T05:18:33;5.47;;;2.33;;
79009;SDS011;73031;44.726;37.760;2023-12-07T05:19:34;6.43;;;2.80;;
79009;SDS011;73031;44.726;37.760;2023-12-07T05:20:36;6.57;;;2.90;;
79009;SDS011;73031;44.726;37.760;2023-12-07T05:21:39;7.90;;;2.65;;
79009;SDS011;73031;44.726;37.760;2023-12-07T05:22:41;5.63;;;2.47;;
79009;SDS011;73031;44.726;37.760;2023-12-07T05:23:42;6.10;;;2.78;;
79009;SDS011;73031;44.726;37.760;2023-12-07T05:24:43;7.18;;;3.22;;
79009;SDS011;73031;44.726;37.760;2023-12-07T05:25:44;6.53;;;2.70;;
79009;SDS011;73031;44.726;37.760;2023-12-07T05:26:46;5.22;;;2.63;;
79009;SDS011;73031;44.726;37.760;2023-12-07T05:27:47;7.45;;;2.95;;
79009;SDS011;73031;44.726;37.760;2023-12-07T05:28:48;6.47;;;2.83;;
79009;SDS011;73031;44.726;37.760;2023-12-07T05:29:50;6.40;;;2.28;;
79009;SDS011;73031;44.726;37.760;2023-12-07T05:30:51;8.50;;;3.00;;
79009;SDS011;73031;44.726;37.760;2023-12-07T05:31:53;6.28;;;2.50;;
79009;SDS011;73031;44.726;37.760;2023-12-07T05:32:54;5.30;;;2.30;;
79009;SDS011;73031;44.726;37.760;2023-12-07T05:33:55;6.43;;;2.75;;
79009;SDS011;73031;44.726;37.760;2023-12-07T05:34:56;6.05;;;2.67;;
79009;SDS011;73031;44.726;37.760;2023-12-07T05:35:57;8.23;;;3.15;;
79009;SDS011;73031;44.726;37.760;2023-12-07T05:36:59;6.35;;;2.85;;
79009;SDS011;73031;44.726;37.760;2023-12-07T05:38:00;8.20;;;3.10;;
79009;SDS011;73031;44.726;37.760;2023-12-07T05:39:01;6.93;;;2.75;;
79009;SDS011;73031;44.726;37.760;2023-12-07T05:40:02;6.93;;;2.90;;
79009;SDS011;73031;44.726;37.760;2023-12-07T05:41:05;7.00;;;2.92;;
79009;SDS011;73031;44.726;37.760;2023-12-07T05:42:06;5.72;;;2.40;;
79009;SDS011;73031;44.726;37.760;2023-12-07T05:43:07;7.38;;;2.92;;
79009;SDS011;73031;44.726;37.760;2023-12-07T05:44:08;6.78;;;2.80;;
79009;SDS011;73031;44.726;37.760;2023-12-07T05:45:09;8.90;;;2.80;;
79009;SDS011;73031;44.726;37.760;2023-12-07T05:46:10;6.82;;;2.88;;
79009;SDS011;73031;44.726;37.760;2023-12-07T05:47:12;7.80;;;2.58;;
79009;SDS011;73031;44.726;37.760;2023-12-07T05:48:13;10.10;;;2.67;;
79009;SDS011;73031;44.726;37.760;2023-12-07T05:49:14;8.05;;;3.00;;
79009;SDS011;73031;44.726;37.760;2023-12-07T05:50:16;7.82;;;3.13;;
79009;SDS011;73031;44.726;37.760;2023-12-07T05:51:17;9.23;;;3.38;;
79009;SDS011;73031;44.726;37.760;2023-12-07T05:52:18;12.15;;;3.20;;
79009;SDS011;73031;44.726;37.760;2023-12-07T05:53:19;11.27;;;3.50;;
79009;SDS011;73031;44.726;37.760;2023-12-07T05:54:20;13.55;;;3.72;;
79009;SDS011;73031;44.726;37.760;2023-12-07T05:55:22;11.13;;;3.65;;
79009;SDS011;73031;44.726;37.760;2023-12-07T05:56:24;12.60;;;3.33;;
79009;SDS011;73031;44.726;37.760;2023-12-07T05:57:25;10.25;;;3.40;;
79009;SDS011;73031;44.726;37.760;2023-12-07T05:58:26;12.23;;;4.07;;
79009;SDS011;73031;44.726;37.760;2023-12-07T05:59:27;12.10;;;3.55;;
79009;SDS011;73031;44.726;37.760;2023-12-07T06:00:29;11.73;;;3.55;;
79009;SDS011;73031;44.726;37.760;2023-12-07T06:01:30;9.07;;;3.70;;
79009;SDS011;73031;44.726;37.760;2023-12-07T06:02:31;10.57;;;3.47;;
79009;SDS011;73031;44.726;37.760;2023-12-07T06:03:32;10.55;;;3.58;;
79009;SDS011;73031;44.726;37.760;2023-12-07T06:04:33;11.70;;;3.90;;
79009;SDS011;73031;44.726;37.760;2023-12-07T06:05:37;12.60;;;3.67;;
79009;SDS011;73031;44.726;37.760;2023-12-07T06:06:38;10.48;;;3.38;;
79009;SDS011;73031;44.726;37.760;2023-12-07T06:07:40;12.57;;;3.95;;
79009;SDS011;73031;44.726;37.760;2023-12-07T06:08:41;9.60;;;3.40;;
79009;SDS011;73031;44.726;37.760;2023-12-07T06:09:42;11.50;;;4.10;;